sensor_id;sensor_type;location;lat;lon;timestamp;temperature;humidity
19622;DHT22;9958;33.196;-97.114;2023-08-24T00:00:29;38.00;50.70
19622;DHT22;9958;33.196;-97.114;2023-08-24T00:02:58;38.00;50.80
19622;DHT22;9958;33.196;-97.114;2023-08-24T00:05:29;38.00;51.00
19622;DHT22;9958;33.196;-97.114;2023-08-24T00:07:59;37.90;51.00
19622;DHT22;9958;33.196;-97.114;2023-08-24T00:10:27;37.90;50.80
19622;DHT22;9958;33.196;-97.114;2023-08-24T00:12:56;37.90;51.10
19622;DHT22;9958;33.196;-97.114;2023-08-24T00:15:24;37.80;50.90
19622;DHT22;9958;33.196;-97.114;2023-08-24T00:17:52;37.80;51.30
19622;DHT22;9958;33.196;-97.114;2023-08-24T00:20:21;37.80;51.40
19622;DHT22;9958;33.196;-97.114;2023-08-24T00:22:49;37.70;51.60
19622;DHT22;9958;33.196;-97.114;2023-08-24T00:25:19;37.60;51.80
19622;DHT22;9958;33.196;-97.114;2023-08-24T00:27:47;37.50;51.90
19622;DHT22;9958;33.196;-97.114;2023-08-24T00:30:16;37.50;52.10
19622;DHT22;9958;33.196;-97.114;2023-08-24T00:32:44;37.50;52.30
19622;DHT22;9958;33.196;-97.114;2023-08-24T00:35:13;37.40;52.50
19622;DHT22;9958;33.196;-97.114;2023-08-24T00:37:42;37.30;52.70
19622;DHT22;9958;33.196;-97.114;2023-08-24T00:40:11;37.30;53.00
19622;DHT22;9958;33.196;-97.114;2023-08-24T00:42:42;37.20;53.20
19622;DHT22;9958;33.196;-97.114;2023-08-24T00:45:11;37.20;53.20
19622;DHT22;9958;33.196;-97.114;2023-08-24T00:47:40;37.10;53.20
19622;DHT22;9958;33.196;-97.114;2023-08-24T00:50:11;36.90;53.00
19622;DHT22;9958;33.196;-97.114;2023-08-24T00:52:41;36.90;53.60
19622;DHT22;9958;33.196;-97.114;2023-08-24T00:55:10;36.80;53.60
19622;DHT22;9958;33.196;-97.114;2023-08-24T00:57:40;36.80;53.90
19622;DHT22;9958;33.196;-97.114;2023-08-24T01:00:09;36.70;54.20
19622;DHT22;9958;33.196;-97.114;2023-08-24T01:02:38;36.60;55.20
19622;DHT22;9958;33.196;-97.114;2023-08-24T01:05:07;36.60;55.00
19622;DHT22;9958;33.196;-97.114;2023-08-24T01:07:37;36.50;55.00
19622;DHT22;9958;33.196;-97.114;2023-08-24T01:10:08;36.40;55.10
19622;DHT22;9958;33.196;-97.114;2023-08-24T01:12:55;36.30;55.50
19622;DHT22;9958;33.196;-97.114;2023-08-24T01:15:32;36.20;55.70
19622;DHT22;9958;33.196;-97.114;2023-08-24T01:18:06;36.00;55.80
19622;DHT22;9958;33.196;-97.114;2023-08-24T01:20:36;36.00;56.30
19622;DHT22;9958;33.196;-97.114;2023-08-24T01:23:14;35.90;56.50
19622;DHT22;9958;33.196;-97.114;2023-08-24T01:25:51;35.80;56.80
19622;DHT22;9958;33.196;-97.114;2023-08-24T01:28:21;35.70;57.00
19622;DHT22;9958;33.196;-97.114;2023-08-24T01:30:50;35.60;57.20
19622;DHT22;9958;33.196;-97.114;2023-08-24T01:33:18;35.50;57.60
19622;DHT22;9958;33.196;-97.114;2023-08-24T01:35:47;35.40;57.70
19622;DHT22;9958;33.196;-97.114;2023-08-24T01:38:15;35.30;57.70
19622;DHT22;9958;33.196;-97.114;2023-08-24T01:40:52;35.20;58.00
19622;DHT22;9958;33.196;-97.114;2023-08-24T01:43:28;35.10;58.00
19622;DHT22;9958;33.196;-97.114;2023-08-24T01:45:56;35.00;58.00
19622;DHT22;9958;33.196;-97.114;2023-08-24T01:48:26;35.00;58.10
19622;DHT22;9958;33.196;-97.114;2023-08-24T01:50:56;34.90;58.20
19622;DHT22;9958;33.196;-97.114;2023-08-24T01:53:25;34.80;58.30
19622;DHT22;9958;33.196;-97.114;2023-08-24T01:55:54;34.70;58.40
19622;DHT22;9958;33.196;-97.114;2023-08-24T01:58:24;34.70;58.80
19622;DHT22;9958;33.196;-97.114;2023-08-24T02:00:52;34.60;58.90
19622;DHT22;9958;33.196;-97.114;2023-08-24T02:03:20;34.50;59.20
19622;DHT22;9958;33.196;-97.114;2023-08-24T02:05:49;34.40;59.30
19622;DHT22;9958;33.196;-97.114;2023-08-24T02:08:17;34.40;59.40
19622;DHT22;9958;33.196;-97.114;2023-08-24T02:10:45;34.30;59.40
19622;DHT22;9958;33.196;-97.114;2023-08-24T02:13:14;34.30;59.70
19622;DHT22;9958;33.196;-97.114;2023-08-24T02:15:43;34.20;59.80
19622;DHT22;9958;33.196;-97.114;2023-08-24T02:18:12;34.10;59.70
19622;DHT22;9958;33.196;-97.114;2023-08-24T02:20:41;34.10;60.00
19622;DHT22;9958;33.196;-97.114;2023-08-24T02:23:09;34.00;60.10
19622;DHT22;9958;33.196;-97.114;2023-08-24T02:25:42;33.90;60.40
19622;DHT22;9958;33.196;-97.114;2023-08-24T02:28:11;33.90;60.80
19622;DHT22;9958;33.196;-97.114;2023-08-24T02:30:39;33.80;61.20
19622;DHT22;9958;33.196;-97.114;2023-08-24T02:33:09;33.80;61.20
19622;DHT22;9958;33.196;-97.114;2023-08-24T02:35:38;33.70;61.10
19622;DHT22;9958;33.196;-97.114;2023-08-24T02:38:06;33.70;61.10
19622;DHT22;9958;33.196;-97.114;2023-08-24T02:40:34;33.60;61.00
19622;DHT22;9958;33.196;-97.114;2023-08-24T02:43:03;33.60;61.60
19622;DHT22;9958;33.196;-97.114;2023-08-24T02:45:31;33.50;62.20
19622;DHT22;9958;33.196;-97.114;2023-08-24T02:47:59;33.50;62.50
19622;DHT22;9958;33.196;-97.114;2023-08-24T02:50:29;33.40;62.40
19622;DHT22;9958;33.196;-97.114;2023-08-24T02:52:58;33.30;62.70
19622;DHT22;9958;33.196;-97.114;2023-08-24T02:55:28;33.30;63.00
19622;DHT22;9958;33.196;-97.114;2023-08-24T02:57:56;33.20;63.00
19622;DHT22;9958;33.196;-97.114;2023-08-24T03:00:24;33.10;63.20
19622;DHT22;9958;33.196;-97.114;2023-08-24T03:02:52;33.10;63.40
19622;DHT22;9958;33.196;-97.114;2023-08-24T03:05:21;33.00;63.70
19622;DHT22;9958;33.196;-97.114;2023-08-24T03:07:52;33.00;64.00
19622;DHT22;9958;33.196;-97.114;2023-08-24T03:10:20;32.90;64.40
19622;DHT22;9958;33.196;-97.114;2023-08-24T03:12:48;32.80;64.60
19622;DHT22;9958;33.196;-97.114;2023-08-24T03:15:17;32.80;64.70
19622;DHT22;9958;33.196;-97.114;2023-08-24T03:17:45;32.70;64.80
19622;DHT22;9958;33.196;-97.114;2023-08-24T03:20:13;32.70;65.40
19622;DHT22;9958;33.196;-97.114;2023-08-24T03:22:42;32.60;66.00
19622;DHT22;9958;33.196;-97.114;2023-08-24T03:25:12;32.60;66.30
19622;DHT22;9958;33.196;-97.114;2023-08-24T03:27:40;32.50;66.50
19622;DHT22;9958;33.196;-97.114;2023-08-24T03:30:09;32.50;67.30
19622;DHT22;9958;33.196;-97.114;2023-08-24T03:32:39;32.50;67.60
19622;DHT22;9958;33.196;-97.114;2023-08-24T03:35:08;32.40;68.20
19622;DHT22;9958;33.196;-97.114;2023-08-24T03:37:36;32.40;68.20
19622;DHT22;9958;33.196;-97.114;2023-08-24T03:40:05;32.30;68.60
19622;DHT22;9958;33.196;-97.114;2023-08-24T03:42:36;32.30;69.00
19622;DHT22;9958;33.196;-97.114;2023-08-24T03:45:05;32.30;69.70
19622;DHT22;9958;33.196;-97.114;2023-08-24T03:47:34;32.20;70.40
19622;DHT22;9958;33.196;-97.114;2023-08-24T03:50:03;32.20;70.80
19622;DHT22;9958;33.196;-97.114;2023-08-24T03:52:32;32.10;71.30
19622;DHT22;9958;33.196;-97.114;2023-08-24T03:55:00;32.10;71.90
19622;DHT22;9958;33.196;-97.114;2023-08-24T03:57:28;32.00;72.40
19622;DHT22;9958;33.196;-97.114;2023-08-24T03:59:58;32.00;72.40
19622;DHT22;9958;33.196;-97.114;2023-08-24T04:02:26;32.00;73.10
19622;DHT22;9958;33.196;-97.114;2023-08-24T04:04:55;31.90;73.40
19622;DHT22;9958;33.196;-97.114;2023-08-24T04:07:23;31.90;73.80
19622;DHT22;9958;33.196;-97.114;2023-08-24T04:09:51;31.90;74.30
19622;DHT22;9958;33.196;-97.114;2023-08-24T04:12:19;31.80;74.70
19622;DHT22;9958;33.196;-97.114;2023-08-24T04:14:48;31.80;74.90
19622;DHT22;9958;33.196;-97.114;2023-08-24T04:17:20;31.80;75.30
19622;DHT22;9958;33.196;-97.114;2023-08-24T04:19:48;31.70;75.30
19622;DHT22;9958;33.196;-97.114;2023-08-24T04:22:17;31.70;75.20
19622;DHT22;9958;33.196;-97.114;2023-08-24T04:24:45;31.70;75.60
19622;DHT22;9958;33.196;-97.114;2023-08-24T04:27:13;31.60;75.50
19622;DHT22;9958;33.196;-97.114;2023-08-24T04:29:41;31.60;75.30
19622;DHT22;9958;33.196;-97.114;2023-08-24T04:32:10;31.60;75.20
19622;DHT22;9958;33.196;-97.114;2023-08-24T04:34:40;31.60;75.00
19622;DHT22;9958;33.196;-97.114;2023-08-24T04:37:08;31.50;74.80
19622;DHT22;9958;33.196;-97.114;2023-08-24T04:39:37;31.50;75.00
19622;DHT22;9958;33.196;-97.114;2023-08-24T04:42:06;31.40;75.00
19622;DHT22;9958;33.196;-97.114;2023-08-24T04:44:34;31.40;74.70
19622;DHT22;9958;33.196;-97.114;2023-08-24T04:47:02;31.40;74.10
19622;DHT22;9958;33.196;-97.114;2023-08-24T04:49:31;31.40;73.90
19622;DHT22;9958;33.196;-97.114;2023-08-24T04:52:01;31.40;73.50
19622;DHT22;9958;33.196;-97.114;2023-08-24T04:54:29;31.40;74.00
19622;DHT22;9958;33.196;-97.114;2023-08-24T04:56:58;31.30;74.10
19622;DHT22;9958;33.196;-97.114;2023-08-24T04:59:26;31.30;74.30
19622;DHT22;9958;33.196;-97.114;2023-08-24T05:01:54;31.30;74.30
19622;DHT22;9958;33.196;-97.114;2023-08-24T05:04:23;31.30;74.60
19622;DHT22;9958;33.196;-97.114;2023-08-24T05:06:51;31.30;74.60
19622;DHT22;9958;33.196;-97.114;2023-08-24T05:09:21;31.20;74.50
19622;DHT22;9958;33.196;-97.114;2023-08-24T05:11:49;31.20;74.60
19622;DHT22;9958;33.196;-97.114;2023-08-24T05:14:18;31.20;74.50
19622;DHT22;9958;33.196;-97.114;2023-08-24T05:16:46;31.20;75.80
19622;DHT22;9958;33.196;-97.114;2023-08-24T05:19:14;31.20;75.20
19622;DHT22;9958;33.196;-97.114;2023-08-24T05:21:43;31.20;75.20
19622;DHT22;9958;33.196;-97.114;2023-08-24T05:24:11;31.20;75.10
19622;DHT22;9958;33.196;-97.114;2023-08-24T05:26:41;31.20;75.20
19622;DHT22;9958;33.196;-97.114;2023-08-24T05:29:09;31.20;75.70
19622;DHT22;9958;33.196;-97.114;2023-08-24T05:31:37;31.10;75.60
19622;DHT22;9958;33.196;-97.114;2023-08-24T05:34:05;31.10;75.60
19622;DHT22;9958;33.196;-97.114;2023-08-24T05:36:34;31.10;75.60
19622;DHT22;9958;33.196;-97.114;2023-08-24T05:39:02;31.10;75.40
19622;DHT22;9958;33.196;-97.114;2023-08-24T05:41:30;31.10;75.60
19622;DHT22;9958;33.196;-97.114;2023-08-24T05:44:01;31.10;75.90
19622;DHT22;9958;33.196;-97.114;2023-08-24T05:46:29;31.10;75.70
19622;DHT22;9958;33.196;-97.114;2023-08-24T05:48:58;31.20;75.30
19622;DHT22;9958;33.196;-97.114;2023-08-24T05:51:27;31.20;75.30
19622;DHT22;9958;33.196;-97.114;2023-08-24T05:53:55;31.20;75.20
19622;DHT22;9958;33.196;-97.114;2023-08-24T05:56:24;31.20;75.20
19622;DHT22;9958;33.196;-97.114;2023-08-24T05:58:53;31.20;75.10
19622;DHT22;9958;33.196;-97.114;2023-08-24T06:01:23;31.20;75.00
19622;DHT22;9958;33.196;-97.114;2023-08-24T06:03:51;31.20;75.10
19622;DHT22;9958;33.196;-97.114;2023-08-24T06:06:20;31.20;75.20
19622;DHT22;9958;33.196;-97.114;2023-08-24T06:08:48;31.20;75.20
19622;DHT22;9958;33.196;-97.114;2023-08-24T06:11:17;31.20;75.60
19622;DHT22;9958;33.196;-97.114;2023-08-24T06:13:45;31.20;75.60
19622;DHT22;9958;33.196;-97.114;2023-08-24T06:16:13;31.10;75.70
19622;DHT22;9958;33.196;-97.114;2023-08-24T06:18:43;31.20;75.80
19622;DHT22;9958;33.196;-97.114;2023-08-24T06:21:12;31.10;76.50
19622;DHT22;9958;33.196;-97.114;2023-08-24T06:23:40;31.10;75.80
19622;DHT22;9958;33.196;-97.114;2023-08-24T06:26:08;31.10;76.00
19622;DHT22;9958;33.196;-97.114;2023-08-24T06:28:37;31.10;76.20
19622;DHT22;9958;33.196;-97.114;2023-08-24T06:31:05;31.10;76.40
19622;DHT22;9958;33.196;-97.114;2023-08-24T06:33:34;31.10;76.40
19622;DHT22;9958;33.196;-97.114;2023-08-24T06:36:05;31.10;76.80
19622;DHT22;9958;33.196;-97.114;2023-08-24T06:38:34;31.10;77.00
19622;DHT22;9958;33.196;-97.114;2023-08-24T06:41:02;31.10;77.10
19622;DHT22;9958;33.196;-97.114;2023-08-24T06:43:30;31.00;77.20
19622;DHT22;9958;33.196;-97.114;2023-08-24T06:45:59;31.00;77.40
19622;DHT22;9958;33.196;-97.114;2023-08-24T06:48:26;30.90;77.50
19622;DHT22;9958;33.196;-97.114;2023-08-24T06:50:54;30.90;77.60
19622;DHT22;9958;33.196;-97.114;2023-08-24T06:53:24;30.90;77.60
19622;DHT22;9958;33.196;-97.114;2023-08-24T06:55:54;30.90;77.70
19622;DHT22;9958;33.196;-97.114;2023-08-24T06:58:23;30.90;77.80
19622;DHT22;9958;33.196;-97.114;2023-08-24T07:00:51;30.80;77.70
19622;DHT22;9958;33.196;-97.114;2023-08-24T07:03:22;30.80;77.90
19622;DHT22;9958;33.196;-97.114;2023-08-24T07:05:50;30.80;78.00
19622;DHT22;9958;33.196;-97.114;2023-08-24T07:08:18;30.70;78.40
19622;DHT22;9958;33.196;-97.114;2023-08-24T07:10:48;30.70;78.60
19622;DHT22;9958;33.196;-97.114;2023-08-24T07:13:17;30.70;78.70
19622;DHT22;9958;33.196;-97.114;2023-08-24T07:15:45;30.60;78.60
19622;DHT22;9958;33.196;-97.114;2023-08-24T07:18:13;30.60;79.00
19622;DHT22;9958;33.196;-97.114;2023-08-24T07:20:42;30.60;79.40
19622;DHT22;9958;33.196;-97.114;2023-08-24T07:23:10;30.60;79.40
19622;DHT22;9958;33.196;-97.114;2023-08-24T07:25:38;30.50;79.30
19622;DHT22;9958;33.196;-97.114;2023-08-24T07:28:09;30.50;80.10
19622;DHT22;9958;33.196;-97.114;2023-08-24T07:30:37;30.50;80.30
19622;DHT22;9958;33.196;-97.114;2023-08-24T07:33:05;30.40;80.60
19622;DHT22;9958;33.196;-97.114;2023-08-24T07:35:33;30.40;81.20
19622;DHT22;9958;33.196;-97.114;2023-08-24T07:38:02;30.30;81.80
19622;DHT22;9958;33.196;-97.114;2023-08-24T07:40:31;30.30;82.10
19622;DHT22;9958;33.196;-97.114;2023-08-24T07:42:59;30.30;82.40
19622;DHT22;9958;33.196;-97.114;2023-08-24T07:45:29;30.30;82.40
19622;DHT22;9958;33.196;-97.114;2023-08-24T07:47:58;30.20;83.10
19622;DHT22;9958;33.196;-97.114;2023-08-24T07:50:26;30.20;83.50
19622;DHT22;9958;33.196;-97.114;2023-08-24T07:52:54;30.10;83.90
19622;DHT22;9958;33.196;-97.114;2023-08-24T07:55:23;30.10;85.10
19622;DHT22;9958;33.196;-97.114;2023-08-24T07:57:52;30.00;85.00
19622;DHT22;9958;33.196;-97.114;2023-08-24T08:00:20;30.00;85.30
19622;DHT22;9958;33.196;-97.114;2023-08-24T08:02:51;30.00;85.90
19622;DHT22;9958;33.196;-97.114;2023-08-24T08:05:20;30.00;86.70
19622;DHT22;9958;33.196;-97.114;2023-08-24T08:07:49;29.90;87.40
19622;DHT22;9958;33.196;-97.114;2023-08-24T08:10:17;29.90;87.80
19622;DHT22;9958;33.196;-97.114;2023-08-24T08:12:47;29.90;88.50
19622;DHT22;9958;33.196;-97.114;2023-08-24T08:15:15;29.80;89.00
19622;DHT22;9958;33.196;-97.114;2023-08-24T08:17:44;29.80;89.80
19622;DHT22;9958;33.196;-97.114;2023-08-24T08:20:14;29.80;90.40
19622;DHT22;9958;33.196;-97.114;2023-08-24T08:22:43;29.80;91.00
19622;DHT22;9958;33.196;-97.114;2023-08-24T08:25:11;29.80;91.30
19622;DHT22;9958;33.196;-97.114;2023-08-24T08:27:39;29.80;92.10
19622;DHT22;9958;33.196;-97.114;2023-08-24T08:30:08;29.70;92.30
19622;DHT22;9958;33.196;-97.114;2023-08-24T08:32:37;29.70;92.90
19622;DHT22;9958;33.196;-97.114;2023-08-24T08:35:06;29.70;92.80
19622;DHT22;9958;33.196;-97.114;2023-08-24T08:37:36;29.70;92.90
19622;DHT22;9958;33.196;-97.114;2023-08-24T08:40:05;29.60;93.30
19622;DHT22;9958;33.196;-97.114;2023-08-24T08:42:36;29.70;93.40
19622;DHT22;9958;33.196;-97.114;2023-08-24T08:45:09;29.60;93.30
19622;DHT22;9958;33.196;-97.114;2023-08-24T08:47:37;29.60;93.30
19622;DHT22;9958;33.196;-97.114;2023-08-24T08:50:07;29.60;93.00
19622;DHT22;9958;33.196;-97.114;2023-08-24T08:52:38;29.60;93.50
19622;DHT22;9958;33.196;-97.114;2023-08-24T08:55:07;29.60;93.70
19622;DHT22;9958;33.196;-97.114;2023-08-24T08:57:37;29.50;93.80
19622;DHT22;9958;33.196;-97.114;2023-08-24T09:00:11;29.50;93.70
19622;DHT22;9958;33.196;-97.114;2023-08-24T09:02:43;29.50;93.80
19622;DHT22;9958;33.196;-97.114;2023-08-24T09:05:12;29.50;93.70
19622;DHT22;9958;33.196;-97.114;2023-08-24T09:07:42;29.40;93.30
19622;DHT22;9958;33.196;-97.114;2023-08-24T09:10:10;29.40;93.40
19622;DHT22;9958;33.196;-97.114;2023-08-24T09:12:39;29.40;93.40
19622;DHT22;9958;33.196;-97.114;2023-08-24T09:15:08;29.30;93.50
19622;DHT22;9958;33.196;-97.114;2023-08-24T09:17:42;29.30;93.80
19622;DHT22;9958;33.196;-97.114;2023-08-24T09:20:11;29.30;94.10
19622;DHT22;9958;33.196;-97.114;2023-08-24T09:22:43;29.20;93.90
19622;DHT22;9958;33.196;-97.114;2023-08-24T09:25:12;29.20;94.10
19622;DHT22;9958;33.196;-97.114;2023-08-24T09:27:40;29.20;94.10
19622;DHT22;9958;33.196;-97.114;2023-08-24T09:30:09;29.10;94.00
19622;DHT22;9958;33.196;-97.114;2023-08-24T09:32:37;29.10;94.00
19622;DHT22;9958;33.196;-97.114;2023-08-24T09:35:09;29.10;94.10
19622;DHT22;9958;33.196;-97.114;2023-08-24T09:37:38;29.10;94.40
19622;DHT22;9958;33.196;-97.114;2023-08-24T09:40:08;29.00;94.40
19622;DHT22;9958;33.196;-97.114;2023-08-24T09:42:39;29.00;94.30
19622;DHT22;9958;33.196;-97.114;2023-08-24T09:45:10;29.00;94.50
19622;DHT22;9958;33.196;-97.114;2023-08-24T09:47:39;29.00;94.60
19622;DHT22;9958;33.196;-97.114;2023-08-24T09:50:08;28.90;94.60
19622;DHT22;9958;33.196;-97.114;2023-08-24T09:52:37;28.90;94.80
19622;DHT22;9958;33.196;-97.114;2023-08-24T09:55:08;28.90;94.90
19622;DHT22;9958;33.196;-97.114;2023-08-24T09:57:38;28.90;95.00
19622;DHT22;9958;33.196;-97.114;2023-08-24T10:00:08;28.80;94.90
19622;DHT22;9958;33.196;-97.114;2023-08-24T10:02:48;28.80;95.20
19622;DHT22;9958;33.196;-97.114;2023-08-24T10:05:19;28.80;95.10
19622;DHT22;9958;33.196;-97.114;2023-08-24T10:07:52;28.80;95.40
19622;DHT22;9958;33.196;-97.114;2023-08-24T10:10:23;28.70;95.10
19622;DHT22;9958;33.196;-97.114;2023-08-24T10:12:57;28.70;95.10
19622;DHT22;9958;33.196;-97.114;2023-08-24T10:15:26;28.70;95.10
19622;DHT22;9958;33.196;-97.114;2023-08-24T10:17:55;28.70;95.40
19622;DHT22;9958;33.196;-97.114;2023-08-24T10:20:24;28.60;95.10
19622;DHT22;9958;33.196;-97.114;2023-08-24T10:22:53;28.60;95.10
19622;DHT22;9958;33.196;-97.114;2023-08-24T10:25:23;28.60;95.30
19622;DHT22;9958;33.196;-97.114;2023-08-24T10:27:53;28.60;95.30
19622;DHT22;9958;33.196;-97.114;2023-08-24T10:30:22;28.50;95.50
19622;DHT22;9958;33.196;-97.114;2023-08-24T10:32:52;28.50;95.50
19622;DHT22;9958;33.196;-97.114;2023-08-24T10:35:22;28.50;95.40
19622;DHT22;9958;33.196;-97.114;2023-08-24T10:37:53;28.50;95.40
19622;DHT22;9958;33.196;-97.114;2023-08-24T10:40:33;28.50;95.20
19622;DHT22;9958;33.196;-97.114;2023-08-24T10:43:05;28.40;95.50
19622;DHT22;9958;33.196;-97.114;2023-08-24T10:45:55;28.40;95.30
19622;DHT22;9958;33.196;-97.114;2023-08-24T10:48:24;28.40;95.40
19622;DHT22;9958;33.196;-97.114;2023-08-24T10:51:17;28.40;95.60
19622;DHT22;9958;33.196;-97.114;2023-08-24T10:53:46;28.40;95.40
19622;DHT22;9958;33.196;-97.114;2023-08-24T10:56:18;28.30;95.60
19622;DHT22;9958;33.196;-97.114;2023-08-24T10:58:47;28.30;95.70
19622;DHT22;9958;33.196;-97.114;2023-08-24T11:01:16;28.20;96.00
19622;DHT22;9958;33.196;-97.114;2023-08-24T11:03:56;28.20;96.30
19622;DHT22;9958;33.196;-97.114;2023-08-24T11:06:26;28.20;96.40
19622;DHT22;9958;33.196;-97.114;2023-08-24T11:09:06;28.30;96.80
19622;DHT22;9958;33.196;-97.114;2023-08-24T11:11:41;28.20;96.90
19622;DHT22;9958;33.196;-97.114;2023-08-24T11:14:17;28.20;97.10
19622;DHT22;9958;33.196;-97.114;2023-08-24T11:16:46;28.20;97.20
19622;DHT22;9958;33.196;-97.114;2023-08-24T11:19:15;28.10;97.40
19622;DHT22;9958;33.196;-97.114;2023-08-24T11:21:45;28.10;97.40
19622;DHT22;9958;33.196;-97.114;2023-08-24T11:24:14;28.10;97.60
19622;DHT22;9958;33.196;-97.114;2023-08-24T11:26:45;28.10;97.90
19622;DHT22;9958;33.196;-97.114;2023-08-24T11:29:14;28.10;98.00
19622;DHT22;9958;33.196;-97.114;2023-08-24T11:31:44;28.00;98.00
19622;DHT22;9958;33.196;-97.114;2023-08-24T11:34:15;28.00;98.20
19622;DHT22;9958;33.196;-97.114;2023-08-24T11:36:46;28.00;98.30
19622;DHT22;9958;33.196;-97.114;2023-08-24T11:39:18;28.00;98.40
19622;DHT22;9958;33.196;-97.114;2023-08-24T11:42:00;28.00;98.70
19622;DHT22;9958;33.196;-97.114;2023-08-24T11:44:29;28.00;99.00
19622;DHT22;9958;33.196;-97.114;2023-08-24T11:46:58;27.90;99.10
19622;DHT22;9958;33.196;-97.114;2023-08-24T11:49:27;27.90;99.50
19622;DHT22;9958;33.196;-97.114;2023-08-24T11:51:55;27.90;99.90
19622;DHT22;9958;33.196;-97.114;2023-08-24T11:54:25;27.90;99.90
19622;DHT22;9958;33.196;-97.114;2023-08-24T11:56:53;27.90;99.90
19622;DHT22;9958;33.196;-97.114;2023-08-24T11:59:23;27.90;99.90
19622;DHT22;9958;33.196;-97.114;2023-08-24T12:01:53;27.90;99.90
19622;DHT22;9958;33.196;-97.114;2023-08-24T12:04:21;27.90;99.90
19622;DHT22;9958;33.196;-97.114;2023-08-24T12:06:49;27.90;99.90
19622;DHT22;9958;33.196;-97.114;2023-08-24T12:09:18;27.90;99.90
19622;DHT22;9958;33.196;-97.114;2023-08-24T12:11:46;27.90;99.90
19622;DHT22;9958;33.196;-97.114;2023-08-24T12:14:18;27.90;99.90
19622;DHT22;9958;33.196;-97.114;2023-08-24T12:16:48;27.90;99.90
19622;DHT22;9958;33.196;-97.114;2023-08-24T12:19:22;27.90;99.90
19622;DHT22;9958;33.196;-97.114;2023-08-24T12:21:51;27.90;99.90
19622;DHT22;9958;33.196;-97.114;2023-08-24T12:24:19;28.00;99.90
19622;DHT22;9958;33.196;-97.114;2023-08-24T12:26:55;28.00;99.90
19622;DHT22;9958;33.196;-97.114;2023-08-24T12:29:25;28.10;99.90
19622;DHT22;9958;33.196;-97.114;2023-08-24T12:31:57;28.20;99.90
19622;DHT22;9958;33.196;-97.114;2023-08-24T12:34:25;28.30;99.90
19622;DHT22;9958;33.196;-97.114;2023-08-24T12:36:54;28.60;99.90
19622;DHT22;9958;33.196;-97.114;2023-08-24T12:39:22;29.00;99.90
19622;DHT22;9958;33.196;-97.114;2023-08-24T12:41:50;29.60;99.70
19622;DHT22;9958;33.196;-97.114;2023-08-24T12:44:19;30.20;97.60
19622;DHT22;9958;33.196;-97.114;2023-08-24T12:46:47;30.90;96.10
19622;DHT22;9958;33.196;-97.114;2023-08-24T12:49:17;31.50;94.10
19622;DHT22;9958;33.196;-97.114;2023-08-24T12:51:45;32.10;92.10
19622;DHT22;9958;33.196;-97.114;2023-08-24T12:54:14;32.40;91.50
19622;DHT22;9958;33.196;-97.114;2023-08-24T12:56:42;32.70;90.80
19622;DHT22;9958;33.196;-97.114;2023-08-24T12:59:10;32.80;90.40
19622;DHT22;9958;33.196;-97.114;2023-08-24T13:01:39;32.90;90.00
19622;DHT22;9958;33.196;-97.114;2023-08-24T13:04:08;32.90;89.70
19622;DHT22;9958;33.196;-97.114;2023-08-24T13:06:38;32.80;88.60
19622;DHT22;9958;33.196;-97.114;2023-08-24T13:09:06;32.70;88.80
19622;DHT22;9958;33.196;-97.114;2023-08-24T13:11:35;32.70;88.80
19622;DHT22;9958;33.196;-97.114;2023-08-24T13:14:03;32.70;88.80
19622;DHT22;9958;33.196;-97.114;2023-08-24T13:16:32;32.60;89.10
19622;DHT22;9958;33.196;-97.114;2023-08-24T13:19:00;32.60;89.20
19622;DHT22;9958;33.196;-97.114;2023-08-24T13:21:28;32.60;89.30
19622;DHT22;9958;33.196;-97.114;2023-08-24T13:23:58;32.60;89.50
19622;DHT22;9958;33.196;-97.114;2023-08-24T13:26:26;32.60;89.40
19622;DHT22;9958;33.196;-97.114;2023-08-24T13:28:55;32.70;90.00
19622;DHT22;9958;33.196;-97.114;2023-08-24T13:31:23;32.70;89.80
19622;DHT22;9958;33.196;-97.114;2023-08-24T13:33:51;32.80;89.10
19622;DHT22;9958;33.196;-97.114;2023-08-24T13:36:20;32.90;89.00
19622;DHT22;9958;33.196;-97.114;2023-08-24T13:38:48;32.90;88.90
19622;DHT22;9958;33.196;-97.114;2023-08-24T13:41:18;33.00;88.40
19622;DHT22;9958;33.196;-97.114;2023-08-24T13:43:47;33.10;87.50
19622;DHT22;9958;33.196;-97.114;2023-08-24T13:46:15;33.20;87.40
19622;DHT22;9958;33.196;-97.114;2023-08-24T13:48:43;33.20;87.30
19622;DHT22;9958;33.196;-97.114;2023-08-24T13:51:12;33.40;87.00
19622;DHT22;9958;33.196;-97.114;2023-08-24T13:53:40;33.40;86.70
19622;DHT22;9958;33.196;-97.114;2023-08-24T13:56:08;33.60;86.70
19622;DHT22;9958;33.196;-97.114;2023-08-24T13:58:38;33.70;86.00
19622;DHT22;9958;33.196;-97.114;2023-08-24T14:01:07;33.80;84.10
19622;DHT22;9958;33.196;-97.114;2023-08-24T14:03:36;34.00;83.60
19622;DHT22;9958;33.196;-97.114;2023-08-24T14:06:06;34.20;82.90
19622;DHT22;9958;33.196;-97.114;2023-08-24T14:08:34;34.30;82.40
19622;DHT22;9958;33.196;-97.114;2023-08-24T14:11:02;34.50;82.60
19622;DHT22;9958;33.196;-97.114;2023-08-24T14:13:30;34.70;80.40
19622;DHT22;9958;33.196;-97.114;2023-08-24T14:16:00;34.80;80.00
19622;DHT22;9958;33.196;-97.114;2023-08-24T14:18:29;34.90;79.70
19622;DHT22;9958;33.196;-97.114;2023-08-24T14:20:57;35.10;79.50
19622;DHT22;9958;33.196;-97.114;2023-08-24T14:23:25;35.20;76.60
19622;DHT22;9958;33.196;-97.114;2023-08-24T14:25:54;35.30;75.10
19622;DHT22;9958;33.196;-97.114;2023-08-24T14:28:22;35.40;75.10
19622;DHT22;9958;33.196;-97.114;2023-08-24T14:30:51;35.60;74.20
19622;DHT22;9958;33.196;-97.114;2023-08-24T14:33:21;35.70;74.10
19622;DHT22;9958;33.196;-97.114;2023-08-24T14:35:52;35.90;73.70
19622;DHT22;9958;33.196;-97.114;2023-08-24T14:38:20;35.90;73.00
19622;DHT22;9958;33.196;-97.114;2023-08-24T14:40:49;36.00;71.80
19622;DHT22;9958;33.196;-97.114;2023-08-24T14:43:17;36.10;71.10
19622;DHT22;9958;33.196;-97.114;2023-08-24T14:45:45;36.20;71.30
19622;DHT22;9958;33.196;-97.114;2023-08-24T14:48:14;36.30;71.20
19622;DHT22;9958;33.196;-97.114;2023-08-24T14:50:44;36.40;69.70
19622;DHT22;9958;33.196;-97.114;2023-08-24T14:53:12;36.50;70.60
19622;DHT22;9958;33.196;-97.114;2023-08-24T14:55:41;36.60;69.90
19622;DHT22;9958;33.196;-97.114;2023-08-24T14:58:09;36.60;70.20
19622;DHT22;9958;33.196;-97.114;2023-08-24T15:00:37;36.70;68.80
19622;DHT22;9958;33.196;-97.114;2023-08-24T15:03:06;36.80;67.90
19622;DHT22;9958;33.196;-97.114;2023-08-24T15:05:42;36.90;67.60
19622;DHT22;9958;33.196;-97.114;2023-08-24T15:08:13;37.00;67.90
19622;DHT22;9958;33.196;-97.114;2023-08-24T15:10:42;37.10;66.50
19622;DHT22;9958;33.196;-97.114;2023-08-24T15:13:10;37.20;67.20
19622;DHT22;9958;33.196;-97.114;2023-08-24T15:15:38;37.40;66.10
19622;DHT22;9958;33.196;-97.114;2023-08-24T15:18:07;37.50;65.40
19622;DHT22;9958;33.196;-97.114;2023-08-24T15:20:35;37.60;64.30
19622;DHT22;9958;33.196;-97.114;2023-08-24T15:23:04;37.60;64.30
19622;DHT22;9958;33.196;-97.114;2023-08-24T15:25:34;37.70;64.20
19622;DHT22;9958;33.196;-97.114;2023-08-24T15:28:03;37.80;63.50